sensor_id;sensor_type;location;lat;lon;timestamp;pressure;altitude;pressure_sealevel;temperature;humidity
3780;BME280;1905;52.482;9.802;2023-03-05T00:00:00;101392.06;;;4.03;85.89
3780;BME280;1905;52.482;9.802;2023-03-05T00:02:27;101391.16;;;4.06;86.12
3780;BME280;1905;52.482;9.802;2023-03-05T00:04:55;101387.69;;;4.04;86.10
3780;BME280;1905;52.482;9.802;2023-03-05T00:07:22;101387.69;;;4.04;86.16
3780;BME280;1905;52.482;9.802;2023-03-05T00:09:50;101385.13;;;3.99;85.58
3780;BME280;1905;52.482;9.802;2023-03-05T00:12:18;101382.50;;;3.99;85.86
3780;BME280;1905;52.482;9.802;2023-03-05T00:14:46;101372.94;;;3.98;86.20
3780;BME280;1905;52.482;9.802;2023-03-05T00:17:14;101372.91;;;4.04;85.98
3780;BME280;1905;52.482;9.802;2023-03-05T00:19:41;101372.94;;;3.98;86.12
3780;BME280;1905;52.482;9.802;2023-03-05T00:22:09;101364.22;;;3.99;86.28
3780;BME280;1905;52.482;9.802;2023-03-05T00:24:37;101362.50;;;3.95;86.26
3780;BME280;1905;52.482;9.802;2023-03-05T00:27:04;101362.47;;;3.98;86.16
3780;BME280;1905;52.482;9.802;2023-03-05T00:29:32;101353.78;;;3.96;85.93
3780;BME280;1905;52.482;9.802;2023-03-05T00:32:01;101354.63;;;3.97;86.26
3780;BME280;1905;52.482;9.802;2023-03-05T00:34:32;101355.56;;;3.91;86.18
3780;BME280;1905;52.482;9.802;2023-03-05T00:37:04;101354.66;;;3.95;86.13
3780;BME280;1905;52.482;9.802;2023-03-05T00:39:34;101354.69;;;3.94;86.12
3780;BME280;1905;52.482;9.802;2023-03-05T00:42:06;101339.00;;;3.89;86.18
3780;BME280;1905;52.482;9.802;2023-03-05T00:44:34;101344.25;;;3.88;86.38
3780;BME280;1905;52.482;9.802;2023-03-05T00:47:04;101343.38;;;3.87;85.76
3780;BME280;1905;52.482;9.802;2023-03-05T00:49:32;101336.41;;;3.88;85.82
3780;BME280;1905;52.482;9.802;2023-03-05T00:52:00;101335.50;;;3.89;85.46
3780;BME280;1905;52.482;9.802;2023-03-05T00:54:27;101327.69;;;3.90;85.22
3780;BME280;1905;52.482;9.802;2023-03-05T00:56:55;101330.34;;;3.86;86.31
3780;BME280;1905;52.482;9.802;2023-03-05T00:59:22;101325.97;;;3.88;85.62
3780;BME280;1905;52.482;9.802;2023-03-05T01:01:50;101321.63;;;3.81;85.91
3780;BME280;1905;52.482;9.802;2023-03-05T01:04:25;101317.28;;;3.78;86.62
3780;BME280;1905;52.482;9.802;2023-03-05T01:06:56;101317.28;;;3.84;85.59
3780;BME280;1905;52.482;9.802;2023-03-05T01:09:24;101315.53;;;3.82;85.88
3780;BME280;1905;52.482;9.802;2023-03-05T01:11:52;101312.06;;;3.81;86.16
3780;BME280;1905;52.482;9.802;2023-03-05T01:14:20;101299.84;;;3.83;85.97
3780;BME280;1905;52.482;9.802;2023-03-05T01:16:48;101300.78;;;3.78;85.67
3780;BME280;1905;52.482;9.802;2023-03-05T01:19:16;101299.91;;;3.80;85.83
3780;BME280;1905;52.482;9.802;2023-03-05T01:21:46;101293.78;;;3.81;85.99
3780;BME280;1905;52.482;9.802;2023-03-05T01:24:21;101281.63;;;3.80;86.32
3780;BME280;1905;52.482;9.802;2023-03-05T01:26:55;101285.94;;;3.81;86.29
3780;BME280;1905;52.482;9.802;2023-03-05T01:29:23;101280.78;;;3.72;86.37
3780;BME280;1905;52.482;9.802;2023-03-05T01:31:51;101283.38;;;3.74;86.57
3780;BME280;1905;52.482;9.802;2023-03-05T01:34:19;101280.75;;;3.77;86.44
3780;BME280;1905;52.482;9.802;2023-03-05T01:36:48;101266.78;;;3.82;86.35
3780;BME280;1905;52.482;9.802;2023-03-05T01:39:16;101266.81;;;3.76;86.20
3780;BME280;1905;52.482;9.802;2023-03-05T01:41:44;101274.69;;;3.75;85.78
3780;BME280;1905;52.482;9.802;2023-03-05T01:44:20;101265.06;;;3.75;85.75
3780;BME280;1905;52.482;9.802;2023-03-05T01:46:48;101265.97;;;3.73;86.70
3780;BME280;1905;52.482;9.802;2023-03-05T01:49:20;101260.78;;;3.71;86.22
3780;BME280;1905;52.482;9.802;2023-03-05T01:51:57;101261.59;;;3.76;86.89
3780;BME280;1905;52.482;9.802;2023-03-05T01:54:31;101259.00;;;3.73;85.95
3780;BME280;1905;52.482;9.802;2023-03-05T01:57:05;101247.72;;;3.71;85.86
3780;BME280;1905;52.482;9.802;2023-03-05T01:59:35;101249.41;;;3.75;86.24
3780;BME280;1905;52.482;9.802;2023-03-05T02:02:04;101249.38;;;3.78;86.00
3780;BME280;1905;52.482;9.802;2023-03-05T02:04:38;101249.47;;;3.69;86.52
3780;BME280;1905;52.482;9.802;2023-03-05T02:07:12;101244.22;;;3.72;86.94
3780;BME280;1905;52.482;9.802;2023-03-05T02:09:48;101237.28;;;3.68;86.99
3780;BME280;1905;52.482;9.802;2023-03-05T02:12:16;101232.03;;;3.71;86.43
3780;BME280;1905;52.482;9.802;2023-03-05T02:14:46;101235.53;;;3.67;86.34
3780;BME280;1905;52.482;9.802;2023-03-05T02:17:14;101231.19;;;3.69;86.75
3780;BME280;1905;52.482;9.802;2023-03-05T02:19:48;101235.53;;;3.67;86.76
3780;BME280;1905;52.482;9.802;2023-03-05T02:22:19;101237.28;;;3.65;86.70
3780;BME280;1905;52.482;9.802;2023-03-05T02:24:47;101230.31;;;3.72;87.26
3780;BME280;1905;52.482;9.802;2023-03-05T02:27:15;101231.19;;;3.69;86.78
3780;BME280;1905;52.482;9.802;2023-03-05T02:29:45;101223.44;;;3.57;88.53
3780;BME280;1905;52.482;9.802;2023-03-05T02:32:12;101225.09;;;3.67;87.19
3780;BME280;1905;52.482;9.802;2023-03-05T02:34:40;101225.09;;;3.67;87.32
3780;BME280;1905;52.482;9.802;2023-03-05T02:37:08;101218.97;;;3.70;87.23
3780;BME280;1905;52.482;9.802;2023-03-05T02:39:39;101214.69;;;3.64;87.49
3780;BME280;1905;52.482;9.802;2023-03-05T02:42:08;101212.91;;;3.65;87.74
3780;BME280;1905;52.482;9.802;2023-03-05T02:44:36;101203.34;;;3.65;87.12
3780;BME280;1905;52.482;9.802;2023-03-05T02:47:04;101200.75;;;3.65;88.13
3780;BME280;1905;52.482;9.802;2023-03-05T02:49:35;101198.13;;;3.67;87.27
3780;BME280;1905;52.482;9.802;2023-03-05T02:52:03;101198.13;;;3.65;88.12
3780;BME280;1905;52.482;9.802;2023-03-05T02:54:30;101189.41;;;3.69;87.16
3780;BME280;1905;52.482;9.802;2023-03-05T02:56:59;101190.28;;;3.68;87.90
3780;BME280;1905;52.482;9.802;2023-03-05T02:59:27;101200.75;;;3.65;87.76
3780;BME280;1905;52.482;9.802;2023-03-05T03:01:54;101192.06;;;3.63;88.02
3780;BME280;1905;52.482;9.802;2023-03-05T03:04:22;101188.59;;;3.61;87.63
3780;BME280;1905;52.482;9.802;2023-03-05T03:06:50;101177.25;;;3.64;87.73
3780;BME280;1905;52.482;9.802;2023-03-05T03:09:17;101180.75;;;3.64;88.15
3780;BME280;1905;52.482;9.802;2023-03-05T03:11:45;101176.38;;;3.66;87.31
3780;BME280;1905;52.482;9.802;2023-03-05T03:14:14;101172.88;;;3.67;87.10
3780;BME280;1905;52.482;9.802;2023-03-05T03:16:41;101167.69;;;3.64;87.96
3780;BME280;1905;52.482;9.802;2023-03-05T03:19:09;101162.41;;;3.70;87.25
3780;BME280;1905;52.482;9.802;2023-03-05T03:21:36;101158.97;;;3.65;87.19
3780;BME280;1905;52.482;9.802;2023-03-05T03:24:04;101159.78;;;3.72;87.49
3780;BME280;1905;52.482;9.802;2023-03-05T03:26:32;101158.91;;;3.71;88.05
3780;BME280;1905;52.482;9.802;2023-03-05T03:28:59;101165.94;;;3.66;87.23
3780;BME280;1905;52.482;9.802;2023-03-05T03:31:28;101157.19;;;3.67;87.88
3780;BME280;1905;52.482;9.802;2023-03-05T03:33:56;101149.38;;;3.66;87.67
3780;BME280;1905;52.482;9.802;2023-03-05T03:36:24;101146.81;;;3.61;87.91
3780;BME280;1905;52.482;9.802;2023-03-05T03:38:52;101152.88;;;3.63;88.16
3780;BME280;1905;52.482;9.802;2023-03-05T03:41:20;101147.66;;;3.63;88.11
3780;BME280;1905;52.482;9.802;2023-03-05T03:43:47;101147.63;;;3.69;87.58
3780;BME280;1905;52.482;9.802;2023-03-05T03:46:15;101143.28;;;3.65;88.60
3780;BME280;1905;52.482;9.802;2023-03-05T03:48:44;101143.31;;;3.62;88.78
3780;BME280;1905;52.482;9.802;2023-03-05T03:51:11;101145.94;;;3.64;88.47
3780;BME280;1905;52.482;9.802;2023-03-05T03:53:39;101145.06;;;3.63;87.50
3780;BME280;1905;52.482;9.802;2023-03-05T03:56:06;101131.16;;;3.61;88.38
3780;BME280;1905;52.482;9.802;2023-03-05T03:58:34;101131.16;;;3.59;88.51
3780;BME280;1905;52.482;9.802;2023-03-05T04:01:02;101130.34;;;3.56;87.95
3780;BME280;1905;52.482;9.802;2023-03-05T04:03:29;101127.66;;;3.59;89.03
3780;BME280;1905;52.482;9.802;2023-03-05T04:05:58;101123.31;;;3.59;88.90
3780;BME280;1905;52.482;9.802;2023-03-05T04:08:26;101129.44;;;3.58;87.50
3780;BME280;1905;52.482;9.802;2023-03-05T04:10:54;101118.97;;;3.60;88.26
3780;BME280;1905;52.482;9.802;2023-03-05T04:13:21;101123.31;;;3.59;87.97
3780;BME280;1905;52.482;9.802;2023-03-05T04:15:49;101125.94;;;3.61;88.04
3780;BME280;1905;52.482;9.802;2023-03-05T04:18:16;101118.91;;;3.66;87.48
3780;BME280;1905;52.482;9.802;2023-03-05T04:20:44;101113.69;;;3.65;87.30
3780;BME280;1905;52.482;9.802;2023-03-05T04:23:13;101122.41;;;3.65;88.23
3780;BME280;1905;52.482;9.802;2023-03-05T04:25:40;101119.81;;;3.62;88.77
3780;BME280;1905;52.482;9.802;2023-03-05T04:28:09;101111.97;;;3.62;88.15
3780;BME280;1905;52.482;9.802;2023-03-05T04:30:38;101113.69;;;3.66;87.41
3780;BME280;1905;52.482;9.802;2023-03-05T04:33:05;101098.91;;;3.62;87.53
3780;BME280;1905;52.482;9.802;2023-03-05T04:35:33;101104.13;;;3.67;87.91
3780;BME280;1905;52.482;9.802;2023-03-05T04:38:00;101097.13;;;3.67;87.69
3780;BME280;1905;52.482;9.802;2023-03-05T04:40:29;101091.94;;;3.66;87.87
3780;BME280;1905;52.482;9.802;2023-03-05T04:43:00;101087.59;;;3.63;87.87
3780;BME280;1905;52.482;9.802;2023-03-05T04:45:28;101078.03;;;3.62;88.17
3780;BME280;1905;52.482;9.802;2023-03-05T04:47:56;101085.84;;;3.65;87.72
3780;BME280;1905;52.482;9.802;2023-03-05T04:50:24;101073.72;;;3.61;88.17
3780;BME280;1905;52.482;9.802;2023-03-05T04:52:52;101071.94;;;3.63;88.01
3780;BME280;1905;52.482;9.802;2023-03-05T04:55:19;101079.78;;;3.61;87.17
3780;BME280;1905;52.482;9.802;2023-03-05T04:57:48;101077.16;;;3.63;88.10
3780;BME280;1905;52.482;9.802;2023-03-05T05:00:17;101079.78;;;3.63;87.38
3780;BME280;1905;52.482;9.802;2023-03-05T05:02:46;101078.09;;;3.57;88.42
3780;BME280;1905;52.482;9.802;2023-03-05T05:05:17;101078.06;;;3.59;87.82
3780;BME280;1905;52.482;9.802;2023-03-05T05:07:45;101078.97;;;3.58;88.01
3780;BME280;1905;52.482;9.802;2023-03-05T05:10:14;101074.59;;;3.57;87.64
3780;BME280;1905;52.482;9.802;2023-03-05T05:12:42;101073.75;;;3.55;88.01
3780;BME280;1905;52.482;9.802;2023-03-05T05:15:11;101072.84;;;3.60;87.33
3780;BME280;1905;52.482;9.802;2023-03-05T05:17:40;101062.41;;;3.60;87.16
3780;BME280;1905;52.482;9.802;2023-03-05T05:20:10;101071.16;;;3.55;88.11
3780;BME280;1905;52.482;9.802;2023-03-05T05:22:38;101069.38;;;3.58;87.65
3780;BME280;1905;52.482;9.802;2023-03-05T05:25:06;101061.53;;;3.57;88.76
3780;BME280;1905;52.482;9.802;2023-03-05T05:27:35;101065.91;;;3.53;87.98
3780;BME280;1905;52.482;9.802;2023-03-05T05:30:06;101069.41;;;3.54;88.45
3780;BME280;1905;52.482;9.802;2023-03-05T05:32:35;101059.00;;;3.51;88.50
3780;BME280;1905;52.482;9.802;2023-03-05T05:35:03;101064.19;;;3.55;88.36
3780;BME280;1905;52.482;9.802;2023-03-05T05:37:31;101056.31;;;3.57;87.52
3780;BME280;1905;52.482;9.802;2023-03-05T05:39:59;101045.91;;;3.54;88.82
3780;BME280;1905;52.482;9.802;2023-03-05T05:42:27;101053.78;;;3.49;88.33
3780;BME280;1905;52.482;9.802;2023-03-05T05:44:55;101054.63;;;3.53;88.33
3780;BME280;1905;52.482;9.802;2023-03-05T05:47:22;101054.66;;;3.50;87.75
3780;BME280;1905;52.482;9.802;2023-03-05T05:49:52;101052.91;;;3.52;87.68
3780;BME280;1905;52.482;9.802;2023-03-05T05:52:19;101052.88;;;3.55;87.53
3780;BME280;1905;52.482;9.802;2023-03-05T05:54:49;101045.00;;;3.58;87.67
3780;BME280;1905;52.482;9.802;2023-03-05T05:57:16;101044.19;;;3.56;87.93
3780;BME280;1905;52.482;9.802;2023-03-05T05:59:44;101054.63;;;3.53;87.43
3780;BME280;1905;52.482;9.802;2023-03-05T06:02:11;101051.09;;;3.57;87.47
3780;BME280;1905;52.482;9.802;2023-03-05T06:04:39;101054.63;;;3.56;87.86
3780;BME280;1905;52.482;9.802;2023-03-05T06:07:08;101054.63;;;3.56;87.66
3780;BME280;1905;52.482;9.802;2023-03-05T06:09:35;101046.78;;;3.56;87.48
3780;BME280;1905;52.482;9.802;2023-03-05T06:12:04;101053.75;;;3.54;87.66
3780;BME280;1905;52.482;9.802;2023-03-05T06:14:31;101054.59;;;3.57;88.01
3780;BME280;1905;52.482;9.802;2023-03-05T06:17:02;101057.16;;;3.62;88.33
3780;BME280;1905;52.482;9.802;2023-03-05T06:19:29;101049.41;;;3.56;87.55
3780;BME280;1905;52.482;9.802;2023-03-05T06:21:59;101060.69;;;3.56;88.51
3780;BME280;1905;52.482;9.802;2023-03-05T06:24:28;101049.41;;;3.53;88.47
3780;BME280;1905;52.482;9.802;2023-03-05T06:26:55;101047.66;;;3.55;88.63
3780;BME280;1905;52.482;9.802;2023-03-05T06:29:26;101049.41;;;3.53;88.19
3780;BME280;1905;52.482;9.802;2023-03-05T06:31:54;101047.69;;;3.52;88.82
3780;BME280;1905;52.482;9.802;2023-03-05T06:34:21;101042.44;;;3.52;88.51
3780;BME280;1905;52.482;9.802;2023-03-05T06:36:49;101042.47;;;3.49;88.44
3780;BME280;1905;52.482;9.802;2023-03-05T06:39:17;101038.97;;;3.53;88.56
3780;BME280;1905;52.482;9.802;2023-03-05T06:41:51;101039.78;;;3.56;88.42
3780;BME280;1905;52.482;9.802;2023-03-05T06:44:18;101044.16;;;3.54;88.31
3780;BME280;1905;52.482;9.802;2023-03-05T06:46:48;101042.44;;;3.52;89.03
3780;BME280;1905;52.482;9.802;2023-03-05T06:49:18;101041.56;;;3.56;88.64
3780;BME280;1905;52.482;9.802;2023-03-05T06:51:46;101034.59;;;3.55;88.81
3780;BME280;1905;52.482;9.802;2023-03-05T06:54:16;101044.19;;;3.53;89.33
3780;BME280;1905;52.482;9.802;2023-03-05T06:56:45;101032.88;;;3.52;88.57
3780;BME280;1905;52.482;9.802;2023-03-05T06:59:15;101038.94;;;3.56;88.16
3780;BME280;1905;52.482;9.802;2023-03-05T07:01:43;101035.44;;;3.57;88.26
3780;BME280;1905;52.482;9.802;2023-03-05T07:04:11;101030.16;;;3.61;87.70
3780;BME280;1905;52.482;9.802;2023-03-05T07:06:39;101032.81;;;3.60;88.40
3780;BME280;1905;52.482;9.802;2023-03-05T07:09:10;101036.25;;;3.64;88.22
3780;BME280;1905;52.482;9.802;2023-03-05T07:11:40;101033.66;;;3.62;88.44
3780;BME280;1905;52.482;9.802;2023-03-05T07:14:07;101033.66;;;3.62;88.54
3780;BME280;1905;52.482;9.802;2023-03-05T07:16:36;101028.44;;;3.59;88.45
3780;BME280;1905;52.482;9.802;2023-03-05T07:19:05;101024.09;;;3.59;88.16
3780;BME280;1905;52.482;9.802;2023-03-05T07:21:34;101021.47;;;3.64;88.57
3780;BME280;1905;52.482;9.802;2023-03-05T07:24:05;101028.44;;;3.62;88.60
3780;BME280;1905;52.482;9.802;2023-03-05T07:26:33;101027.53;;;3.65;89.52
3780;BME280;1905;52.482;9.802;2023-03-05T07:29:01;101026.63;;;3.67;88.57
3780;BME280;1905;52.482;9.802;2023-03-05T07:31:29;101023.16;;;3.68;88.27
3780;BME280;1905;52.482;9.802;2023-03-05T07:34:00;101028.31;;;3.74;89.13
3780;BME280;1905;52.482;9.802;2023-03-05T07:36:29;101027.41;;;3.75;88.89
3780;BME280;1905;52.482;9.802;2023-03-05T07:38:57;101019.63;;;3.72;88.97
3780;BME280;1905;52.482;9.802;2023-03-05T07:41:24;101024.00;;;3.70;88.57
3780;BME280;1905;52.482;9.802;2023-03-05T07:43:53;101023.06;;;3.77;88.63
3780;BME280;1905;52.482;9.802;2023-03-05T07:46:23;101017.81;;;3.80;89.49
3780;BME280;1905;52.482;9.802;2023-03-05T07:48:51;101021.31;;;3.76;88.85
3780;BME280;1905;52.482;9.802;2023-03-05T07:51:23;101024.78;;;3.78;88.87
3780;BME280;1905;52.482;9.802;2023-03-05T07:53:52;101023.03;;;3.80;88.82
3780;BME280;1905;52.482;9.802;2023-03-05T07:56:21;101014.28;;;3.81;87.93
3780;BME280;1905;52.482;9.802;2023-03-05T07:58:49;101022.16;;;3.80;87.65
3780;BME280;1905;52.482;9.802;2023-03-05T08:01:17;101009.91;;;3.85;87.98
3780;BME280;1905;52.482;9.802;2023-03-05T08:03:44;101011.66;;;3.86;87.95
3780;BME280;1905;52.482;9.802;2023-03-05T08:06:14;101009.00;;;3.87;88.40
3780;BME280;1905;52.482;9.802;2023-03-05T08:08:43;101010.75;;;3.87;88.55
3780;BME280;1905;52.482;9.802;2023-03-05T08:11:12;101015.03;;;3.94;88.05
3780;BME280;1905;52.482;9.802;2023-03-05T08:13:41;101010.66;;;3.94;88.38
3780;BME280;1905;52.482;9.802;2023-03-05T08:16:11;101012.41;;;3.95;87.98
3780;BME280;1905;52.482;9.802;2023-03-05T08:18:40;100994.97;;;3.94;88.67
3780;BME280;1905;52.482;9.802;2023-03-05T08:21:14;101001.91;;;3.98;88.44
3780;BME280;1905;52.482;9.802;2023-03-05T08:23:44;100995.75;;;4.02;88.55
3780;BME280;1905;52.482;9.802;2023-03-05T08:26:13;100995.72;;;4.05;88.12
3780;BME280;1905;52.482;9.802;2023-03-05T08:28:41;100995.81;;;3.98;89.24
3780;BME280;1905;52.482;9.802;2023-03-05T08:31:09;100989.63;;;4.06;88.47
3780;BME280;1905;52.482;9.802;2023-03-05T08:33:40;100993.03;;;4.11;88.61
3780;BME280;1905;52.482;9.802;2023-03-05T08:36:08;100994.81;;;4.09;88.47
3780;BME280;1905;52.482;9.802;2023-03-05T08:38:36;100989.56;;;4.12;87.83
3780;BME280;1905;52.482;9.802;2023-03-05T08:41:05;100992.06;;;4.20;87.42
3780;BME280;1905;52.482;9.802;2023-03-05T08:43:33;100985.91;;;4.24;87.72
3780;BME280;1905;52.482;9.802;2023-03-05T08:46:01;100998.09;;;4.27;87.33
3780;BME280;1905;52.482;9.802;2023-03-05T08:48:30;100991.13;;;4.26;87.16
3780;BME280;1905;52.482;9.802;2023-03-05T08:51:05;100998.97;;;4.26;87.25
3780;BME280;1905;52.482;9.802;2023-03-05T08:53:54;100996.31;;;4.29;87.20
3780;BME280;1905;52.482;9.802;2023-03-05T08:56:36;100997.16;;;4.31;87.54
3780;BME280;1905;52.482;9.802;2023-03-05T08:59:06;100994.47;;;4.37;87.11
3780;BME280;1905;52.482;9.802;2023-03-05T09:01:34;100998.78;;;4.39;87.41
3780;BME280;1905;52.482;9.802;2023-03-05T09:04:03;100991.66;;;4.49;87.30
3780;BME280;1905;52.482;9.802;2023-03-05T09:06:31;100986.44;;;4.50;86.52
3780;BME280;1905;52.482;9.802;2023-03-05T09:08:59;100992.53;;;4.51;86.71
3780;BME280;1905;52.482;9.802;2023-03-05T09:11:27;100996.03;;;4.50;86.69
3780;BME280;1905;52.482;9.802;2023-03-05T09:13:56;100987.25;;;4.54;86.93
3780;BME280;1905;52.482;9.802;2023-03-05T09:16:23;100988.06;;;4.57;86.73
3780;BME280;1905;52.482;9.802;2023-03-05T09:18:51;100983.66;;;4.61;86.67
3780;BME280;1905;52.482;9.802;2023-03-05T09:21:19;100983.66;;;4.59;86.49
3780;BME280;1905;52.482;9.802;2023-03-05T09:23:46;100980.09;;;4.65;86.46
3780;BME280;1905;52.482;9.802;2023-03-05T09:26:15;100974.78;;;4.71;86.22
3780;BME280;1905;52.482;9.802;2023-03-05T09:28:45;100978.22;;;4.73;85.88
3780;BME280;1905;52.482;9.802;2023-03-05T09:31:14;100971.19;;;4.78;86.12
3780;BME280;1905;52.482;9.802;2023-03-05T09:33:42;100962.50;;;4.76;86.73
3780;BME280;1905;52.482;9.802;2023-03-05T09:36:18;100972.03;;;4.78;86.36
3780;BME280;1905;52.482;9.802;2023-03-05T09:38:46;100968.47;;;4.84;85.70
3780;BME280;1905;52.482;9.802;2023-03-05T09:41:18;100967.59;;;4.85;85.18
3780;BME280;1905;52.482;9.802;2023-03-05T09:43:54;100967.63;;;4.82;85.56
3780;BME280;1905;52.482;9.802;2023-03-05T09:46:32;100966.72;;;4.86;85.34
3780;BME280;1905;52.482;9.802;2023-03-05T09:49:15;100961.44;;;4.89;85.60
3780;BME280;1905;52.482;9.802;2023-03-05T09:51:45;100957.03;;;4.91;85.32
3780;BME280;1905;52.482;9.802;2023-03-05T09:54:18;100949.16;;;4.93;85.08
3780;BME280;1905;52.482;9.802;2023-03-05T09:56:47;100953.38;;;5.01;85.00
3780;BME280;1905;52.482;9.802;2023-03-05T09:59:23;100953.38;;;5.01;84.83
3780;BME280;1905;52.482;9.802;2023-03-05T10:01:58;100955.91;;;5.06;85.73
3780;BME280;1905;52.482;9.802;2023-03-05T10:04:40;100966.38;;;5.06;84.54
3780;BME280;1905;52.482;9.802;2023-03-05T10:07:12;100960.28;;;5.05;84.57
3780;BME280;1905;52.482;9.802;2023-03-05T10:09:44;100967.13;;;5.12;84.84
3780;BME280;1905;52.482;9.802;2023-03-05T10:12:19;100965.31;;;5.17;84.06
3780;BME280;1905;52.482;9.802;2023-03-05T10:14:50;100958.34;;;5.16;84.42
3780;BME280;1905;52.482;9.802;2023-03-05T10:17:39;100954.72;;;5.23;83.82
3780;BME280;1905;52.482;9.802;2023-03-05T10:20:23;100944.16;;;5.29;83.58
3780;BME280;1905;52.482;9.802;2023-03-05T10:23:04;100943.19;;;5.35;83.73
3780;BME280;1905;52.482;9.802;2023-03-05T10:25:51;100940.56;;;5.33;83.64
3780;BME280;1905;52.482;9.802;2023-03-05T10:28:26;100940.44;;;5.41;83.47
3780;BME280;1905;52.482;9.802;2023-03-05T10:31:06;100943.97;;;5.38;83.40
3780;BME280;1905;52.482;9.802;2023-03-05T10:33:49;100934.16;;;5.50;82.98
3780;BME280;1905;52.482;9.802;2023-03-05T10:36:29;100933.22;;;5.54;83.59
3780;BME280;1905;52.482;9.802;2023-03-05T10:39:21;100924.34;;;5.61;82.97
3780;BME280;1905;52.482;9.802;2023-03-05T10:42:02;100924.34;;;5.61;82.44
3780;BME280;1905;52.482;9.802;2023-03-05T10:44:37;100918.94;;;5.68;82.84
3780;BME280;1905;52.482;9.802;2023-03-05T10:47:14;100913.69;;;5.70;82.60
3780;BME280;1905;52.482;9.802;2023-03-05T10:49:49;100909.34;;;5.69;82.62
3780;BME280;1905;52.482;9.802;2023-03-05T10:52:19;100913.56;;;5.76;82.23
3780;BME280;1905;52.482;9.802;2023-03-05T10:54:48;100902.94;;;5.82;81.90
3780;BME280;1905;52.482;9.802;2023-03-05T10:57:18;100891.53;;;5.84;82.10
3780;BME280;1905;52.482;9.802;2023-03-05T10:59:51;100897.63;;;5.88;82.00
3780;BME280;1905;52.482;9.802;2023-03-05T11:02:20;100894.13;;;5.89;81.54
3780;BME280;1905;52.482;9.802;2023-03-05T11:04:51;100895.75;;;5.94;81.85
3780;BME280;1905;52.482;9.802;2023-03-05T11:07:35;100887.94;;;5.90;81.92
3780;BME280;1905;52.482;9.802;2023-03-05T11:10:16;100889.56;;;5.97;81.76
3780;BME280;1905;52.482;9.802;2023-03-05T11:12:44;100882.53;;;5.99;81.40
3780;BME280;1905;52.482;9.802;2023-03-05T11:15:28;100883.28;;;6.04;79.37
3780;BME280;1905;52.482;9.802;2023-03-05T11:18:15;100873.66;;;6.05;81.64
3780;BME280;1905;52.482;9.802;2023-03-05T11:20:45;100871.00;;;6.06;80.98
3780;BME280;1905;52.482;9.802;2023-03-05T11:23:15;100869.22;;;6.08;78.88
3780;BME280;1905;52.482;9.802;2023-03-05T11:25:52;100877.16;;;6.05;79.36
3780;BME280;1905;52.482;9.802;2023-03-05T11:28:22;100877.97;;;6.07;81.19
3780;BME280;1905;52.482;9.802;2023-03-05T11:31:01;100862.94;;;6.15;81.47
3780;BME280;1905;52.482;9.802;2023-03-05T11:33:30;100869.69;;;6.25;80.44
3780;BME280;1905;52.482;9.802;2023-03-05T11:36:21;100865.56;;;6.15;79.83
3780;BME280;1905;52.482;9.802;2023-03-05T11:38:54;100855.75;;;6.23;81.61
3780;BME280;1905;52.482;9.802;2023-03-05T11:41:31;100849.81;;;6.15;80.41
3780;BME280;1905;52.482;9.802;2023-03-05T11:44:00;100872.59;;;6.13;79.74
3780;BME280;1905;52.482;9.802;2023-03-05T11:46:37;100874.59;;;6.02;80.76
3780;BME280;1905;52.482;9.802;2023-03-05T11:49:11;100864.06;;;6.05;81.72
3780;BME280;1905;52.482;9.802;2023-03-05T11:51:47;100863.81;;;6.16;82.29
3780;BME280;1905;52.482;9.802;2023-03-05T11:54:20;100856.75;;;6.19;82.80
3780;BME280;1905;52.482;9.802;2023-03-05T11:56:50;100847.09;;;6.20;82.93
3780;BME280;1905;52.482;9.802;2023-03-05T11:59:22;100841.00;;;6.19;82.71
3780;BME280;1905;52.482;9.802;2023-03-05T12:01:53;100845.31;;;6.22;82.01
3780;BME280;1905;52.482;9.802;2023-03-05T12:04:23;100839.31;;;6.17;83.24
3780;BME280;1905;52.482;9.802;2023-03-05T12:06:53;100843.59;;;6.21;83.19
3780;BME280;1905;52.482;9.802;2023-03-05T12:09:27;100826.91;;;6.23;83.24
3780;BME280;1905;52.482;9.802;2023-03-05T12:12:05;100824.59;;;6.11;81.27
3780;BME280;1905;52.482;9.802;2023-03-05T12:14:38;100822.75;;;6.15;81.50
3780;BME280;1905;52.482;9.802;2023-03-05T12:17:12;100832.59;;;6.04;81.24
3780;BME280;1905;52.482;9.802;2023-03-05T12:19:49;100817.75;;;6.04;81.22
3780;BME280;1905;52.482;9.802;2023-03-05T12:22:22;100807.06;;;6.13;80.73
3780;BME280;1905;52.482;9.802;2023-03-05T12:24:50;100802.69;;;6.14;80.54
3780;BME280;1905;52.482;9.802;2023-03-05T12:27:32;100797.31;;;6.18;81.75
3780;BME280;1905;52.482;9.802;2023-03-05T12:30:01;100799.06;;;6.19;82.08
3780;BME280;1905;52.482;9.802;2023-03-05T12:32:56;100782.47;;;6.19;79.83
3780;BME280;1905;52.482;9.802;2023-03-05T12:35:30;100779.84;;;6.17;81.47
3780;BME280;1905;52.482;9.802;2023-03-05T12:38:08;100770.22;;;6.19;81.06
3780;BME280;1905;52.482;9.802;2023-03-05T12:40:52;100771.84;;;6.23;81.29
3780;BME280;1905;52.482;9.802;2023-03-05T12:43:28;100766.41;;;6.31;80.14
3780;BME280;1905;52.482;9.802;2023-03-05T12:46:22;100764.72;;;6.30;80.83
3780;BME280;1905;52.482;9.802;2023-03-05T12:48:51;100763.78;;;6.31;80.70
3780;BME280;1905;52.482;9.802;2023-03-05T12:51:33;100758.44;;;6.35;80.70
3780;BME280;1905;52.482;9.802;2023-03-05T12:54:21;100745.13;;;6.43;80.72
3780;BME280;1905;52.482;9.802;2023-03-05T12:56:50;100755.81;;;6.35;79.69
3780;BME280;1905;52.482;9.802;2023-03-05T12:59:20;100752.13;;;6.42;80.26
3780;BME280;1905;52.482;9.802;2023-03-05T13:01:51;100746.94;;;6.41;80.30
3780;BME280;1905;52.482;9.802;2023-03-05T13:04:22;100740.81;;;6.40;80.90
3780;BME280;1905;52.482;9.802;2023-03-05T13:06:58;100751.19;;;6.45;80.79
3780;BME280;1905;52.482;9.802;2023-03-05T13:09:29;100735.53;;;6.42;80.36
3780;BME280;1905;52.482;9.802;2023-03-05T13:11:59;100725.97;;;6.41;82.53
3780;BME280;1905;52.482;9.802;2023-03-05T13:14:34;100725.00;;;6.43;79.86
3780;BME280;1905;52.482;9.802;2023-03-05T13:17:23;100723.28;;;6.42;80.39
3780;BME280;1905;52.482;9.802;2023-03-05T13:19:52;100729.34;;;6.44;80.38
3780;BME280;1905;52.482;9.802;2023-03-05T13:22:19;100728.53;;;6.42;81.62
3780;BME280;1905;52.482;9.802;2023-03-05T13:25:08;100717.00;;;6.48;80.72
3780;BME280;1905;52.482;9.802;2023-03-05T13:27:38;100715.19;;;6.51;80.23
3780;BME280;1905;52.482;9.802;2023-03-05T13:30:20;100710.81;;;6.50;79.93
3780;BME280;1905;52.482;9.802;2023-03-05T13:32:49;100707.38;;;6.48;80.27
3780;BME280;1905;52.482;9.802;2023-03-05T13:35:18;100700.25;;;6.53;81.81
3780;BME280;1905;52.482;9.802;2023-03-05T13:37:47;100699.31;;;6.56;81.40
3780;BME280;1905;52.482;9.802;2023-03-05T13:40:22;100694.75;;;6.63;80.56